sensor_id;sensor_type;location;lat;lon;timestamp;temperature;humidity
18884;DHT22;9574;47.282;9.640;2022-10-17T00:01:37;15.30;99.90
18884;DHT22;9574;47.282;9.640;2022-10-17T00:04:04;15.30;99.90
18884;DHT22;9574;47.282;9.640;2022-10-17T00:06:31;15.30;99.90
18884;DHT22;9574;47.282;9.640;2022-10-17T00:08:58;15.20;99.90
18884;DHT22;9574;47.282;9.640;2022-10-17T00:11:25;15.10;99.90
18884;DHT22;9574;47.282;9.640;2022-10-17T00:13:53;15.10;99.90
18884;DHT22;9574;47.282;9.640;2022-10-17T00:16:24;15.10;99.90
18884;DHT22;9574;47.282;9.640;2022-10-17T00:18:51;15.10;99.90
18884;DHT22;9574;47.282;9.640;2022-10-17T00:21:19;15.10;99.90
18884;DHT22;9574;47.282;9.640;2022-10-17T00:23:46;15.00;99.90
18884;DHT22;9574;47.282;9.640;2022-10-17T00:26:15;15.10;99.90
18884;DHT22;9574;47.282;9.640;2022-10-17T00:28:44;15.00;99.90
18884;DHT22;9574;47.282;9.640;2022-10-17T00:31:11;14.80;99.90
18884;DHT22;9574;47.282;9.640;2022-10-17T00:33:39;14.60;99.90
18884;DHT22;9574;47.282;9.640;2022-10-17T00:36:09;14.60;99.90
18884;DHT22;9574;47.282;9.640;2022-10-17T00:38:37;14.60;99.90
18884;DHT22;9574;47.282;9.640;2022-10-17T00:41:04;14.60;99.90
18884;DHT22;9574;47.282;9.640;2022-10-17T00:43:50;14.60;99.90
18884;DHT22;9574;47.282;9.640;2022-10-17T00:46:17;14.60;99.90
18884;DHT22;9574;47.282;9.640;2022-10-17T00:48:47;14.70;99.90
18884;DHT22;9574;47.282;9.640;2022-10-17T00:51:16;14.70;99.90
18884;DHT22;9574;47.282;9.640;2022-10-17T00:53:44;14.80;99.90
18884;DHT22;9574;47.282;9.640;2022-10-17T00:56:12;14.70;99.90
18884;DHT22;9574;47.282;9.640;2022-10-17T00:58:39;14.60;99.90
18884;DHT22;9574;47.282;9.640;2022-10-17T01:01:06;14.50;99.90
18884;DHT22;9574;47.282;9.640;2022-10-17T01:03:33;14.50;99.90
18884;DHT22;9574;47.282;9.640;2022-10-17T01:06:01;14.50;99.90
18884;DHT22;9574;47.282;9.640;2022-10-17T01:08:28;14.50;99.90
18884;DHT22;9574;47.282;9.640;2022-10-17T01:11:00;14.30;99.90
18884;DHT22;9574;47.282;9.640;2022-10-17T01:13:35;14.40;99.90
18884;DHT22;9574;47.282;9.640;2022-10-17T01:16:08;14.30;99.90
18884;DHT22;9574;47.282;9.640;2022-10-17T01:18:45;14.30;99.90
18884;DHT22;9574;47.282;9.640;2022-10-17T01:21:40;14.30;99.90
18884;DHT22;9574;47.282;9.640;2022-10-17T01:24:48;14.30;99.90
18884;DHT22;9574;47.282;9.640;2022-10-17T01:27:46;14.30;99.90
18884;DHT22;9574;47.282;9.640;2022-10-17T01:30:43;14.30;99.90
18884;DHT22;9574;47.282;9.640;2022-10-17T01:33:13;14.40;99.90
18884;DHT22;9574;47.282;9.640;2022-10-17T01:35:47;14.40;99.90
18884;DHT22;9574;47.282;9.640;2022-10-17T01:38:20;14.30;99.90
18884;DHT22;9574;47.282;9.640;2022-10-17T01:40:51;14.10;99.90
18884;DHT22;9574;47.282;9.640;2022-10-17T01:43:23;14.10;99.90
18884;DHT22;9574;47.282;9.640;2022-10-17T01:45:56;14.10;99.90
18884;DHT22;9574;47.282;9.640;2022-10-17T01:48:28;14.00;99.90
18884;DHT22;9574;47.282;9.640;2022-10-17T01:51:00;14.00;99.90
18884;DHT22;9574;47.282;9.640;2022-10-17T01:53:31;14.00;99.90
18884;DHT22;9574;47.282;9.640;2022-10-17T01:56:01;14.00;99.90
18884;DHT22;9574;47.282;9.640;2022-10-17T01:58:32;14.00;99.90
18884;DHT22;9574;47.282;9.640;2022-10-17T02:01:04;13.90;99.90
18884;DHT22;9574;47.282;9.640;2022-10-17T02:03:33;13.90;99.90
18884;DHT22;9574;47.282;9.640;2022-10-17T02:06:00;13.80;99.90
18884;DHT22;9574;47.282;9.640;2022-10-17T02:08:38;13.80;99.90
18884;DHT22;9574;47.282;9.640;2022-10-17T02:11:10;13.70;99.90
18884;DHT22;9574;47.282;9.640;2022-10-17T02:13:52;13.70;99.90
18884;DHT22;9574;47.282;9.640;2022-10-17T02:16:28;13.60;99.90
18884;DHT22;9574;47.282;9.640;2022-10-17T02:22:00;13.80;99.90
18884;DHT22;9574;47.282;9.640;2022-10-17T02:24:34;13.80;99.90
18884;DHT22;9574;47.282;9.640;2022-10-17T02:27:07;13.70;99.90
18884;DHT22;9574;47.282;9.640;2022-10-17T02:29:42;13.80;99.90
18884;DHT22;9574;47.282;9.640;2022-10-17T02:32:20;13.90;99.90
18884;DHT22;9574;47.282;9.640;2022-10-17T02:34:51;13.80;99.90
18884;DHT22;9574;47.282;9.640;2022-10-17T02:37:23;13.80;99.90
18884;DHT22;9574;47.282;9.640;2022-10-17T02:39:51;13.80;99.90
18884;DHT22;9574;47.282;9.640;2022-10-17T02:42:20;13.90;99.90
18884;DHT22;9574;47.282;9.640;2022-10-17T02:44:49;13.80;99.90
18884;DHT22;9574;47.282;9.640;2022-10-17T02:47:24;13.80;99.90
18884;DHT22;9574;47.282;9.640;2022-10-17T02:49:54;13.80;99.90
18884;DHT22;9574;47.282;9.640;2022-10-17T02:52:25;13.70;99.90
18884;DHT22;9574;47.282;9.640;2022-10-17T02:54:57;13.70;99.90
18884;DHT22;9574;47.282;9.640;2022-10-17T02:57:29;13.70;99.90
18884;DHT22;9574;47.282;9.640;2022-10-17T02:59:57;13.60;99.90
18884;DHT22;9574;47.282;9.640;2022-10-17T03:02:27;13.50;99.90
18884;DHT22;9574;47.282;9.640;2022-10-17T03:04:54;13.30;99.90
18884;DHT22;9574;47.282;9.640;2022-10-17T03:07:22;13.10;99.90
18884;DHT22;9574;47.282;9.640;2022-10-17T03:09:48;13.00;99.90
18884;DHT22;9574;47.282;9.640;2022-10-17T03:12:15;13.10;99.90
18884;DHT22;9574;47.282;9.640;2022-10-17T03:14:42;13.10;99.90
18884;DHT22;9574;47.282;9.640;2022-10-17T03:17:09;13.10;99.90
18884;DHT22;9574;47.282;9.640;2022-10-17T03:19:38;13.20;99.90
18884;DHT22;9574;47.282;9.640;2022-10-17T03:22:05;13.20;99.90
18884;DHT22;9574;47.282;9.640;2022-10-17T03:24:31;13.30;99.90
18884;DHT22;9574;47.282;9.640;2022-10-17T03:26:58;13.40;99.90
18884;DHT22;9574;47.282;9.640;2022-10-17T03:29:25;13.40;99.90
18884;DHT22;9574;47.282;9.640;2022-10-17T03:31:52;13.40;99.90
18884;DHT22;9574;47.282;9.640;2022-10-17T03:34:19;13.30;99.90
18884;DHT22;9574;47.282;9.640;2022-10-17T03:36:48;13.10;99.90
18884;DHT22;9574;47.282;9.640;2022-10-17T03:39:15;13.00;99.90
18884;DHT22;9574;47.282;9.640;2022-10-17T03:41:42;12.90;99.90
18884;DHT22;9574;47.282;9.640;2022-10-17T03:44:09;13.00;99.90
18884;DHT22;9574;47.282;9.640;2022-10-17T03:46:36;13.00;99.90
18884;DHT22;9574;47.282;9.640;2022-10-17T03:49:03;13.00;99.90
18884;DHT22;9574;47.282;9.640;2022-10-17T03:51:31;13.10;99.90
18884;DHT22;9574;47.282;9.640;2022-10-17T03:54:01;13.10;99.90
18884;DHT22;9574;47.282;9.640;2022-10-17T03:56:28;13.30;99.90
18884;DHT22;9574;47.282;9.640;2022-10-17T03:58:55;13.30;99.90
18884;DHT22;9574;47.282;9.640;2022-10-17T04:01:23;13.30;99.90
18884;DHT22;9574;47.282;9.640;2022-10-17T04:03:51;13.30;99.90
18884;DHT22;9574;47.282;9.640;2022-10-17T04:06:19;13.20;99.90
18884;DHT22;9574;47.282;9.640;2022-10-17T04:08:46;13.10;99.90
18884;DHT22;9574;47.282;9.640;2022-10-17T04:11:16;13.10;99.90
18884;DHT22;9574;47.282;9.640;2022-10-17T04:13:44;12.90;99.90
18884;DHT22;9574;47.282;9.640;2022-10-17T04:16:13;12.90;99.90
18884;DHT22;9574;47.282;9.640;2022-10-17T04:18:40;13.00;99.90
18884;DHT22;9574;47.282;9.640;2022-10-17T04:21:08;12.90;99.90
18884;DHT22;9574;47.282;9.640;2022-10-17T04:23:35;12.90;99.90
18884;DHT22;9574;47.282;9.640;2022-10-17T04:26:04;12.90;99.90
18884;DHT22;9574;47.282;9.640;2022-10-17T04:28:33;12.90;99.90
18884;DHT22;9574;47.282;9.640;2022-10-17T04:31:01;12.90;99.90
18884;DHT22;9574;47.282;9.640;2022-10-17T04:33:28;12.90;99.90
18884;DHT22;9574;47.282;9.640;2022-10-17T04:35:56;12.90;99.90
18884;DHT22;9574;47.282;9.640;2022-10-17T04:38:24;12.80;99.90
18884;DHT22;9574;47.282;9.640;2022-10-17T04:40:51;12.70;99.90
18884;DHT22;9574;47.282;9.640;2022-10-17T04:43:18;12.60;99.90
18884;DHT22;9574;47.282;9.640;2022-10-17T04:45:47;12.50;99.90
18884;DHT22;9574;47.282;9.640;2022-10-17T04:48:14;12.60;99.90
18884;DHT22;9574;47.282;9.640;2022-10-17T04:50:41;12.70;99.90
18884;DHT22;9574;47.282;9.640;2022-10-17T04:53:07;12.80;99.90
18884;DHT22;9574;47.282;9.640;2022-10-17T04:55:37;12.80;99.90
18884;DHT22;9574;47.282;9.640;2022-10-17T04:58:04;12.90;99.90
18884;DHT22;9574;47.282;9.640;2022-10-17T05:00:31;12.90;99.90
18884;DHT22;9574;47.282;9.640;2022-10-17T05:03:00;12.80;99.90
18884;DHT22;9574;47.282;9.640;2022-10-17T05:05:26;12.80;99.90
18884;DHT22;9574;47.282;9.640;2022-10-17T05:07:53;12.80;99.90
18884;DHT22;9574;47.282;9.640;2022-10-17T05:10:20;13.30;99.90
18884;DHT22;9574;47.282;9.640;2022-10-17T05:12:48;13.20;99.90
18884;DHT22;9574;47.282;9.640;2022-10-17T05:15:15;13.20;99.90
18884;DHT22;9574;47.282;9.640;2022-10-17T05:17:43;13.00;99.90
18884;DHT22;9574;47.282;9.640;2022-10-17T05:20:11;12.90;99.90
18884;DHT22;9574;47.282;9.640;2022-10-17T05:22:38;12.70;99.90
18884;DHT22;9574;47.282;9.640;2022-10-17T05:25:06;12.70;99.90
18884;DHT22;9574;47.282;9.640;2022-10-17T05:30:02;12.80;99.90
18884;DHT22;9574;47.282;9.640;2022-10-17T05:32:29;12.60;99.90
18884;DHT22;9574;47.282;9.640;2022-10-17T05:34:56;12.50;99.90
18884;DHT22;9574;47.282;9.640;2022-10-17T05:37:25;12.30;99.90
18884;DHT22;9574;47.282;9.640;2022-10-17T05:39:52;12.20;99.90
18884;DHT22;9574;47.282;9.640;2022-10-17T05:42:19;12.20;99.90
18884;DHT22;9574;47.282;9.640;2022-10-17T05:44:45;12.20;99.90
18884;DHT22;9574;47.282;9.640;2022-10-17T05:47:12;12.20;99.90
18884;DHT22;9574;47.282;9.640;2022-10-17T05:49:39;12.10;99.90
18884;DHT22;9574;47.282;9.640;2022-10-17T05:52:07;12.10;99.90
18884;DHT22;9574;47.282;9.640;2022-10-17T05:54:35;12.20;99.90
18884;DHT22;9574;47.282;9.640;2022-10-17T05:57:02;12.00;99.90
18884;DHT22;9574;47.282;9.640;2022-10-17T05:59:29;11.90;99.90
18884;DHT22;9574;47.282;9.640;2022-10-17T06:01:56;11.80;99.90
18884;DHT22;9574;47.282;9.640;2022-10-17T06:04:23;11.80;99.90
18884;DHT22;9574;47.282;9.640;2022-10-17T06:06:52;11.80;99.90
18884;DHT22;9574;47.282;9.640;2022-10-17T06:09:20;11.80;99.90
18884;DHT22;9574;47.282;9.640;2022-10-17T06:11:49;11.90;99.90
18884;DHT22;9574;47.282;9.640;2022-10-17T06:14:16;11.90;99.90
18884;DHT22;9574;47.282;9.640;2022-10-17T06:16:43;12.00;99.90
18884;DHT22;9574;47.282;9.640;2022-10-17T06:19:10;12.20;99.90
18884;DHT22;9574;47.282;9.640;2022-10-17T06:21:37;12.30;99.90
18884;DHT22;9574;47.282;9.640;2022-10-17T06:24:04;12.30;99.90
18884;DHT22;9574;47.282;9.640;2022-10-17T06:26:31;12.50;99.90
18884;DHT22;9574;47.282;9.640;2022-10-17T06:29:00;12.90;99.90
18884;DHT22;9574;47.282;9.640;2022-10-17T06:31:26;12.90;99.90
18884;DHT22;9574;47.282;9.640;2022-10-17T06:33:53;12.70;99.90
18884;DHT22;9574;47.282;9.640;2022-10-17T06:36:20;12.60;99.90
18884;DHT22;9574;47.282;9.640;2022-10-17T06:38:47;12.60;99.90
18884;DHT22;9574;47.282;9.640;2022-10-17T06:41:15;12.60;99.90
18884;DHT22;9574;47.282;9.640;2022-10-17T06:43:44;12.70;99.90
18884;DHT22;9574;47.282;9.640;2022-10-17T06:46:14;12.90;99.90
18884;DHT22;9574;47.282;9.640;2022-10-17T06:48:42;13.10;99.90
18884;DHT22;9574;47.282;9.640;2022-10-17T06:51:09;13.30;99.90
18884;DHT22;9574;47.282;9.640;2022-10-17T06:53:37;13.60;99.90
18884;DHT22;9574;47.282;9.640;2022-10-17T06:56:06;13.90;99.90
18884;DHT22;9574;47.282;9.640;2022-10-17T06:58:35;14.00;99.90
18884;DHT22;9574;47.282;9.640;2022-10-17T07:01:05;14.20;99.90
18884;DHT22;9574;47.282;9.640;2022-10-17T07:03:34;14.20;99.90
18884;DHT22;9574;47.282;9.640;2022-10-17T07:06:01;14.30;99.90
18884;DHT22;9574;47.282;9.640;2022-10-17T07:08:28;14.30;99.90
18884;DHT22;9574;47.282;9.640;2022-10-17T07:10:56;14.50;99.90
18884;DHT22;9574;47.282;9.640;2022-10-17T07:13:23;14.70;99.90
18884;DHT22;9574;47.282;9.640;2022-10-17T07:15:50;15.10;99.90
18884;DHT22;9574;47.282;9.640;2022-10-17T07:18:21;15.30;99.90
18884;DHT22;9574;47.282;9.640;2022-10-17T07:20:53;15.40;99.90
18884;DHT22;9574;47.282;9.640;2022-10-17T07:23:20;15.50;99.90
18884;DHT22;9574;47.282;9.640;2022-10-17T07:25:47;15.70;99.90
18884;DHT22;9574;47.282;9.640;2022-10-17T07:28:15;15.70;99.90
18884;DHT22;9574;47.282;9.640;2022-10-17T07:30:42;15.70;99.90
18884;DHT22;9574;47.282;9.640;2022-10-17T07:33:09;15.90;99.90
18884;DHT22;9574;47.282;9.640;2022-10-17T07:35:37;16.10;99.90
18884;DHT22;9574;47.282;9.640;2022-10-17T07:38:07;16.20;99.90
18884;DHT22;9574;47.282;9.640;2022-10-17T07:40:34;16.30;99.90
18884;DHT22;9574;47.282;9.640;2022-10-17T07:43:01;16.50;99.90
18884;DHT22;9574;47.282;9.640;2022-10-17T07:45:28;16.60;99.90
18884;DHT22;9574;47.282;9.640;2022-10-17T07:47:55;16.70;99.90
18884;DHT22;9574;47.282;9.640;2022-10-17T07:50:23;16.80;99.90
18884;DHT22;9574;47.282;9.640;2022-10-17T07:52:50;17.00;99.90
18884;DHT22;9574;47.282;9.640;2022-10-17T07:55:18;17.20;99.90
18884;DHT22;9574;47.282;9.640;2022-10-17T07:57:45;17.40;99.90
18884;DHT22;9574;47.282;9.640;2022-10-17T08:00:13;17.60;99.90
18884;DHT22;9574;47.282;9.640;2022-10-17T08:02:40;17.80;99.90
18884;DHT22;9574;47.282;9.640;2022-10-17T08:05:07;18.10;99.90
18884;DHT22;9574;47.282;9.640;2022-10-17T08:07:34;18.50;99.90
18884;DHT22;9574;47.282;9.640;2022-10-17T08:10:01;18.90;99.90
18884;DHT22;9574;47.282;9.640;2022-10-17T08:12:29;19.20;99.90
18884;DHT22;9574;47.282;9.640;2022-10-17T08:14:59;19.10;99.90
18884;DHT22;9574;47.282;9.640;2022-10-17T08:17:26;19.10;99.90
18884;DHT22;9574;47.282;9.640;2022-10-17T08:19:53;19.10;99.90
18884;DHT22;9574;47.282;9.640;2022-10-17T08:22:20;19.40;99.90
18884;DHT22;9574;47.282;9.640;2022-10-17T08:24:47;19.60;99.90
18884;DHT22;9574;47.282;9.640;2022-10-17T08:27:14;19.90;99.90
18884;DHT22;9574;47.282;9.640;2022-10-17T08:29:47;19.90;99.90
18884;DHT22;9574;47.282;9.640;2022-10-17T08:32:17;20.10;99.90
18884;DHT22;9574;47.282;9.640;2022-10-17T08:34:44;20.30;99.90
18884;DHT22;9574;47.282;9.640;2022-10-17T08:37:11;20.40;99.90
18884;DHT22;9574;47.282;9.640;2022-10-17T08:39:39;20.60;99.90
18884;DHT22;9574;47.282;9.640;2022-10-17T08:42:23;20.90;99.90
18884;DHT22;9574;47.282;9.640;2022-10-17T08:44:59;21.20;99.90
18884;DHT22;9574;47.282;9.640;2022-10-17T08:47:34;21.40;99.90
18884;DHT22;9574;47.282;9.640;2022-10-17T08:50:04;21.80;99.90
18884;DHT22;9574;47.282;9.640;2022-10-17T08:52:35;22.00;99.90
18884;DHT22;9574;47.282;9.640;2022-10-17T08:55:13;22.30;99.90
18884;DHT22;9574;47.282;9.640;2022-10-17T08:57:41;22.40;99.90
18884;DHT22;9574;47.282;9.640;2022-10-17T09:00:15;22.60;99.90
18884;DHT22;9574;47.282;9.640;2022-10-17T09:02:53;22.60;99.90
18884;DHT22;9574;47.282;9.640;2022-10-17T09:05:36;22.60;99.90
18884;DHT22;9574;47.282;9.640;2022-10-17T09:08:15;22.70;99.90
18884;DHT22;9574;47.282;9.640;2022-10-17T09:10:53;22.50;99.90
18884;DHT22;9574;47.282;9.640;2022-10-17T09:13:42;22.40;99.90
18884;DHT22;9574;47.282;9.640;2022-10-17T09:16:22;22.70;99.90
18884;DHT22;9574;47.282;9.640;2022-10-17T09:18:59;23.00;99.90
18884;DHT22;9574;47.282;9.640;2022-10-17T09:21:35;23.30;99.90
18884;DHT22;9574;47.282;9.640;2022-10-17T09:24:12;23.30;99.90
18884;DHT22;9574;47.282;9.640;2022-10-17T09:26:41;23.10;99.90
18884;DHT22;9574;47.282;9.640;2022-10-17T09:29:19;23.10;99.90
18884;DHT22;9574;47.282;9.640;2022-10-17T09:31:53;23.30;99.90
18884;DHT22;9574;47.282;9.640;2022-10-17T09:34:25;23.50;99.60
18884;DHT22;9574;47.282;9.640;2022-10-17T09:36:54;23.70;99.70
18884;DHT22;9574;47.282;9.640;2022-10-17T09:39:23;23.90;99.90
18884;DHT22;9574;47.282;9.640;2022-10-17T09:41:55;24.20;99.90
18884;DHT22;9574;47.282;9.640;2022-10-17T09:44:24;24.40;99.90
18884;DHT22;9574;47.282;9.640;2022-10-17T09:49:40;24.60;99.90
18884;DHT22;9574;47.282;9.640;2022-10-17T09:52:11;24.90;99.90
18884;DHT22;9574;47.282;9.640;2022-10-17T09:54:43;25.00;99.90
18884;DHT22;9574;47.282;9.640;2022-10-17T09:57:12;25.00;99.90
18884;DHT22;9574;47.282;9.640;2022-10-17T09:59:41;25.20;99.90
18884;DHT22;9574;47.282;9.640;2022-10-17T10:02:19;25.10;99.90
18884;DHT22;9574;47.282;9.640;2022-10-17T10:04:58;25.20;99.90
18884;DHT22;9574;47.282;9.640;2022-10-17T10:07:28;25.30;98.80
18884;DHT22;9574;47.282;9.640;2022-10-17T10:09:56;25.30;99.90
18884;DHT22;9574;47.282;9.640;2022-10-17T10:12:25;25.10;99.80
18884;DHT22;9574;47.282;9.640;2022-10-17T10:14:53;25.00;99.80
18884;DHT22;9574;47.282;9.640;2022-10-17T10:17:36;25.10;99.90
18884;DHT22;9574;47.282;9.640;2022-10-17T10:20:26;25.10;99.00
18884;DHT22;9574;47.282;9.640;2022-10-17T10:23:10;24.90;99.90
18884;DHT22;9574;47.282;9.640;2022-10-17T10:25:54;25.00;98.50
18884;DHT22;9574;47.282;9.640;2022-10-17T10:28:25;25.30;99.80
18884;DHT22;9574;47.282;9.640;2022-10-17T10:30:55;25.60;99.70
18884;DHT22;9574;47.282;9.640;2022-10-17T10:33:26;25.60;99.90
18884;DHT22;9574;47.282;9.640;2022-10-17T10:35:55;25.60;99.90
18884;DHT22;9574;47.282;9.640;2022-10-17T10:38:23;25.80;99.90
18884;DHT22;9574;47.282;9.640;2022-10-17T10:40:52;25.60;99.90
18884;DHT22;9574;47.282;9.640;2022-10-17T10:43:23;25.70;99.90
18884;DHT22;9574;47.282;9.640;2022-10-17T10:45:52;26.00;99.90
18884;DHT22;9574;47.282;9.640;2022-10-17T10:48:21;26.10;99.90
18884;DHT22;9574;47.282;9.640;2022-10-17T10:50:52;26.00;99.90
18884;DHT22;9574;47.282;9.640;2022-10-17T10:53:33;26.30;99.90
18884;DHT22;9574;47.282;9.640;2022-10-17T10:56:06;26.40;99.90
18884;DHT22;9574;47.282;9.640;2022-10-17T10:58:40;26.40;99.90
18884;DHT22;9574;47.282;9.640;2022-10-17T11:01:14;26.50;99.90
18884;DHT22;9574;47.282;9.640;2022-10-17T11:03:52;26.50;99.90
18884;DHT22;9574;47.282;9.640;2022-10-17T11:06:26;26.30;99.90
18884;DHT22;9574;47.282;9.640;2022-10-17T11:09:09;26.20;99.90
18884;DHT22;9574;47.282;9.640;2022-10-17T11:11:40;26.40;99.90
18884;DHT22;9574;47.282;9.640;2022-10-17T11:14:15;26.40;99.90
18884;DHT22;9574;47.282;9.640;2022-10-17T11:16:50;26.40;99.90
18884;DHT22;9574;47.282;9.640;2022-10-17T11:19:23;26.30;99.90
18884;DHT22;9574;47.282;9.640;2022-10-17T11:22:01;26.30;99.90
18884;DHT22;9574;47.282;9.640;2022-10-17T11:24:36;26.30;99.90
18884;DHT22;9574;47.282;9.640;2022-10-17T11:27:05;26.30;99.90
18884;DHT22;9574;47.282;9.640;2022-10-17T11:29:34;26.20;99.90
18884;DHT22;9574;47.282;9.640;2022-10-17T11:32:07;26.10;99.90
18884;DHT22;9574;47.282;9.640;2022-10-17T11:34:38;26.00;99.90
18884;DHT22;9574;47.282;9.640;2022-10-17T11:37:13;25.90;99.90
18884;DHT22;9574;47.282;9.640;2022-10-17T11:39:43;26.00;99.90
18884;DHT22;9574;47.282;9.640;2022-10-17T11:42:16;26.00;99.90
18884;DHT22;9574;47.282;9.640;2022-10-17T11:44:45;26.10;99.90
18884;DHT22;9574;47.282;9.640;2022-10-17T11:47:26;26.10;99.90
18884;DHT22;9574;47.282;9.640;2022-10-17T11:50:01;26.00;99.90
18884;DHT22;9574;47.282;9.640;2022-10-17T11:52:36;25.70;99.90
18884;DHT22;9574;47.282;9.640;2022-10-17T11:55:10;25.60;99.90
18884;DHT22;9574;47.282;9.640;2022-10-17T11:57:48;25.60;99.90
18884;DHT22;9574;47.282;9.640;2022-10-17T12:00:24;25.60;99.90
18884;DHT22;9574;47.282;9.640;2022-10-17T12:03:01;25.60;99.90
18884;DHT22;9574;47.282;9.640;2022-10-17T12:05:37;25.50;99.90
18884;DHT22;9574;47.282;9.640;2022-10-17T12:08:11;25.20;99.90
18884;DHT22;9574;47.282;9.640;2022-10-17T12:10:44;25.30;99.90
18884;DHT22;9574;47.282;9.640;2022-10-17T12:13:48;25.20;99.90
18884;DHT22;9574;47.282;9.640;2022-10-17T12:16:41;25.10;99.90
18884;DHT22;9574;47.282;9.640;2022-10-17T12:19:24;25.00;99.90
18884;DHT22;9574;47.282;9.640;2022-10-17T12:21:58;25.00;99.90
18884;DHT22;9574;47.282;9.640;2022-10-17T12:24:36;25.00;99.90
18884;DHT22;9574;47.282;9.640;2022-10-17T12:27:40;25.10;99.90
18884;DHT22;9574;47.282;9.640;2022-10-17T12:30:17;25.30;99.90
18884;DHT22;9574;47.282;9.640;2022-10-17T12:32:58;25.50;99.90
18884;DHT22;9574;47.282;9.640;2022-10-17T12:35:27;25.50;99.90
18884;DHT22;9574;47.282;9.640;2022-10-17T12:38:13;25.60;99.90
18884;DHT22;9574;47.282;9.640;2022-10-17T12:40:53;25.50;99.90
18884;DHT22;9574;47.282;9.640;2022-10-17T12:49:38;25.70;99.90
18884;DHT22;9574;47.282;9.640;2022-10-17T12:52:26;25.70;99.90
18884;DHT22;9574;47.282;9.640;2022-10-17T12:55:00;25.70;99.90
18884;DHT22;9574;47.282;9.640;2022-10-17T12:57:37;25.70;99.90
18884;DHT22;9574;47.282;9.640;2022-10-17T13:00:16;25.60;99.90
18884;DHT22;9574;47.282;9.640;2022-10-17T13:02:44;25.80;99.90
18884;DHT22;9574;47.282;9.640;2022-10-17T13:05:24;25.90;99.90
18884;DHT22;9574;47.282;9.640;2022-10-17T13:07:53;26.00;99.90
18884;DHT22;9574;47.282;9.640;2022-10-17T13:10:24;25.90;99.90
18884;DHT22;9574;47.282;9.640;2022-10-17T13:13:05;25.80;99.90
18884;DHT22;9574;47.282;9.640;2022-10-17T13:15:32;25.90;99.90
18884;DHT22;9574;47.282;9.640;2022-10-17T13:18:01;25.80;99.90
18884;DHT22;9574;47.282;9.640;2022-10-17T13:20:29;25.80;99.90
18884;DHT22;9574;47.282;9.640;2022-10-17T13:22:56;25.90;99.90
18884;DHT22;9574;47.282;9.640;2022-10-17T13:25:25;25.90;99.90
18884;DHT22;9574;47.282;9.640;2022-10-17T13:28:06;25.60;99.90
18884;DHT22;9574;47.282;9.640;2022-10-17T13:30:36;25.50;99.90
18884;DHT22;9574;47.282;9.640;2022-10-17T13:33:17;25.60;99.90
18884;DHT22;9574;47.282;9.640;2022-10-17T13:35:46;25.60;99.90
18884;DHT22;9574;47.282;9.640;2022-10-17T13:38:14;25.80;99.90
18884;DHT22;9574;47.282;9.640;2022-10-17T13:40:43;25.70;99.90
18884;DHT22;9574;47.282;9.640;2022-10-17T13:43:15;25.50;99.90
18884;DHT22;9574;47.282;9.640;2022-10-17T13:45:46;25.60;99.90
18884;DHT22;9574;47.282;9.640;2022-10-17T13:48:19;25.70;99.90
18884;DHT22;9574;47.282;9.640;2022-10-17T13:50:48;25.90;99.90
18884;DHT22;9574;47.282;9.640;2022-10-17T13:53:19;26.00;99.90
18884;DHT22;9574;47.282;9.640;2022-10-17T13:55:58;26.20;99.90
18884;DHT22;9574;47.282;9.640;2022-10-17T13:58:30;26.10;99.90
18884;DHT22;9574;47.282;9.640;2022-10-17T14:00:59;26.00;99.90
18884;DHT22;9574;47.282;9.640;2022-10-17T14:03:26;25.80;99.90
18884;DHT22;9574;47.282;9.640;2022-10-17T14:06:15;25.60;99.90
18884;DHT22;9574;47.282;9.640;2022-10-17T14:08:51;25.20;99.90
18884;DHT22;9574;47.282;9.640;2022-10-17T14:11:30;25.10;99.90
18884;DHT22;9574;47.282;9.640;2022-10-17T14:14:00;24.90;99.90
18884;DHT22;9574;47.282;9.640;2022-10-17T14:16:34;24.90;99.90
18884;DHT22;9574;47.282;9.640;2022-10-17T14:19:02;24.80;99.90
18884;DHT22;9574;47.282;9.640;2022-10-17T14:21:29;24.90;99.90
18884;DHT22;9574;47.282;9.640;2022-10-17T14:24:12;24.90;99.90
18884;DHT22;9574;47.282;9.640;2022-10-17T14:26:48;24.90;99.90
18884;DHT22;9574;47.282;9.640;2022-10-17T14:29:23;24.70;99.90
18884;DHT22;9574;47.282;9.640;2022-10-17T14:32:00;24.50;99.90
18884;DHT22;9574;47.282;9.640;2022-10-17T14:34:50;24.40;99.90
18884;DHT22;9574;47.282;9.640;2022-10-17T14:37:28;24.40;99.90
18884;DHT22;9574;47.282;9.640;2022-10-17T14:39:58;24.30;99.90
18884;DHT22;9574;47.282;9.640;2022-10-17T14:42:26;24.20;99.90
18884;DHT22;9574;47.282;9.640;2022-10-17T14:45:05;24.10;99.90
18884;DHT22;9574;47.282;9.640;2022-10-17T14:47:33;24.10;99.90
18884;DHT22;9574;47.282;9.640;2022-10-17T14:50:06;24.10;99.90
18884;DHT22;9574;47.282;9.640;2022-10-17T14:52:34;24.00;99.90
18884;DHT22;9574;47.282;9.640;2022-10-17T14:55:24;23.80;99.90
18884;DHT22;9574;47.282;9.640;2022-10-17T14:57:51;23.70;99.90
18884;DHT22;9574;47.282;9.640;2022-10-17T15:00:21;23.60;99.90
18884;DHT22;9574;47.282;9.640;2022-10-17T15:02:49;23.50;99.90
18884;DHT22;9574;47.282;9.640;2022-10-17T15:05:17;23.50;99.90
18884;DHT22;9574;47.282;9.640;2022-10-17T15:07:45;23.40;99.90
18884;DHT22;9574;47.282;9.640;2022-10-17T15:10:30;23.40;99.90
18884;DHT22;9574;47.282;9.640;2022-10-17T15:12:58;23.40;99.90
18884;DHT22;9574;47.282;9.640;2022-10-17T15:15:27;23.40;99.90
18884;DHT22;9574;47.282;9.640;2022-10-17T15:17:54;23.40;99.90
18884;DHT22;9574;47.282;9.640;2022-10-17T15:20:23;23.40;99.90
18884;DHT22;9574;47.282;9.640;2022-10-17T15:22:52;23.40;99.90
18884;DHT22;9574;47.282;9.640;2022-10-17T15:25:20;23.60;99.90
18884;DHT22;9574;47.282;9.640;2022-10-17T15:27:47;23.70;99.90
18884;DHT22;9574;47.282;9.640;2022-10-17T15:30:18;23.80;99.90
18884;DHT22;9574;47.282;9.640;2022-10-17T15:32:48;23.90;99.90
18884;DHT22;9574;47.282;9.640;2022-10-17T15:35:15;24.00;99.90
18884;DHT22;9574;47.282;9.640;2022-10-17T15:37:43;24.00;99.90
18884;DHT22;9574;47.282;9.640;2022-10-17T15:40:14;24.00;99.90
18884;DHT22;9574;47.282;9.640;2022-10-17T15:42:42;24.00;99.90
18884;DHT22;9574;47.282;9.640;2022-10-17T15:45:10;23.70;99.90
18884;DHT22;9574;47.282;9.640;2022-10-17T15:47:37;23.50;99.90
18884;DHT22;9574;47.282;9.640;2022-10-17T15:50:06;23.30;99.90
18884;DHT22;9574;47.282;9.640;2022-10-17T15:52:36;23.30;99.90
18884;DHT22;9574;47.282;9.640;2022-10-17T15:55:04;23.10;99.90
18884;DHT22;9574;47.282;9.640;2022-10-17T15:57:34;22.80;99.90
18884;DHT22;9574;47.282;9.640;2022-10-17T16:00:04;22.40;99.90
18884;DHT22;9574;47.282;9.640;2022-10-17T16:02:32;22.20;99.90
18884;DHT22;9574;47.282;9.640;2022-10-17T16:04:59;22.30;99.90
18884;DHT22;9574;47.282;9.640;2022-10-17T16:07:27;22.10;99.90
18884;DHT22;9574;47.282;9.640;2022-10-17T16:09:54;22.20;99.90
18884;DHT22;9574;47.282;9.640;2022-10-17T16:12:25;21.90;99.90
18884;DHT22;9574;47.282;9.640;2022-10-17T16:14:53;21.80;99.90
18884;DHT22;9574;47.282;9.640;2022-10-17T16:17:21;22.00;99.90
18884;DHT22;9574;47.282;9.640;2022-10-17T16:19:48;22.10;99.90
18884;DHT22;9574;47.282;9.640;2022-10-17T16:22:19;21.90;99.90
18884;DHT22;9574;47.282;9.640;2022-10-17T16:24:47;21.60;99.90